createdAt,value
2019-02-07T00:00:06.629Z,6.00
2019-02-07T00:02:34.252Z,2.83
2019-02-07T00:05:01.399Z,7.40
2019-02-07T00:07:28.552Z,5.20
2019-02-07T00:09:55.701Z,5.78
2019-02-07T00:12:22.707Z,4.90
2019-02-07T00:14:50.001Z,4.25
2019-02-07T00:17:17.152Z,5.85
2019-02-07T00:19:44.303Z,5.20
2019-02-07T00:22:11.453Z,5.70
2019-02-07T00:24:42.893Z,6.17
2019-02-07T00:27:07.599Z,7.87
2019-02-07T00:29:34.748Z,5.60
2019-02-07T00:32:01.899Z,4.83
2019-02-07T00:34:28.897Z,7.17
2019-02-07T00:36:56.199Z,6.42
2019-02-07T00:39:23.350Z,5.37
2019-02-07T00:41:50.500Z,8.75
2019-02-07T00:44:17.714Z,8.58
2019-02-07T00:46:45.418Z,7.85
2019-02-07T00:49:12.566Z,4.95
2019-02-07T00:51:39.717Z,3.67
2019-02-07T00:54:06.867Z,4.15
2019-02-07T00:56:34.326Z,6.53
2019-02-07T00:59:01.475Z,3.15
2019-02-07T01:01:28.626Z,6.40
2019-02-07T01:03:55.470Z,3.77
2019-02-07T01:06:22.356Z,3.90
2019-02-07T01:08:49.463Z,4.60
2019-02-07T01:11:16.306Z,4.97
2019-02-07T01:13:43.457Z,3.67
2019-02-07T01:16:10.607Z,5.25
2019-02-07T01:18:37.450Z,3.62
2019-02-07T01:21:04.651Z,5.85
2019-02-07T01:23:31.593Z,7.87
2019-02-07T01:25:58.594Z,7.28
2019-02-07T01:28:25.486Z,4.67
2019-02-07T01:30:52.204Z,6.50
2019-02-07T01:33:19.439Z,4.30
2019-02-07T01:35:46.320Z,4.08
2019-02-07T01:38:13.120Z,3.00
2019-02-07T01:40:40.269Z,5.10
2019-02-07T01:43:07.419Z,2.33
2019-02-07T01:45:34.262Z,3.05
2019-02-07T01:48:03.204Z,4.20
2019-02-07T01:50:30.714Z,3.80
2019-02-07T01:52:57.560Z,5.28
2019-02-07T01:55:24.404Z,3.42
2019-02-07T01:57:51.551Z,3.50
2019-02-07T02:00:19.208Z,3.72
2019-02-07T02:02:46.162Z,2.67
2019-02-07T02:05:19.761Z,5.58
2019-02-07T02:07:48.332Z,6.05
2019-02-07T02:10:20.206Z,2.92
2019-02-07T02:12:47.356Z,7.22
2019-02-07T02:15:23.971Z,4.83
2019-02-07T02:17:45.651Z,2.67
2019-02-07T02:20:18.642Z,4.35
2019-02-07T02:22:45.732Z,2.70
2019-02-07T02:25:13.247Z,6.87
2019-02-07T02:27:40.705Z,3.45
2019-02-07T02:30:13.889Z,4.25
2019-02-07T02:32:40.785Z,5.15
2019-02-07T02:35:07.997Z,5.67
2019-02-07T02:37:35.451Z,4.50
2019-02-07T02:40:02.602Z,4.53
2019-02-07T02:42:29.493Z,2.92
2019-02-07T02:44:56.438Z,4.92
2019-02-07T02:47:23.382Z,3.22
2019-02-07T02:49:52.127Z,3.15
2019-02-07T02:52:18.971Z,2.58
2019-02-07T02:54:47.348Z,5.75
2019-02-07T02:57:14.498Z,2.98
2019-02-07T02:59:41.341Z,4.12
2019-02-07T03:02:12.793Z,4.40
2019-02-07T03:04:51.009Z,4.78
2019-02-07T03:07:19.689Z,7.17
2019-02-07T03:10:05.885Z,2.77
2019-02-07T03:12:34.576Z,3.12
2019-02-07T03:15:03.200Z,5.05
2019-02-07T03:17:43.621Z,3.47
2019-02-07T03:20:18.144Z,4.00
2019-02-07T03:22:46.838Z,5.53
2019-02-07T03:25:32.108Z,4.47
2019-02-07T03:28:17.687Z,4.67
2019-02-07T03:31:01.428Z,5.78
2019-02-07T03:33:30.114Z,4.92
2019-02-07T03:35:58.799Z,5.17
2019-02-07T03:38:36.395Z,5.67
2019-02-07T03:41:06.003Z,3.58
2019-02-07T03:43:37.763Z,6.30
2019-02-07T03:46:08.951Z,4.00
2019-02-07T03:48:37.592Z,8.23
2019-02-07T03:51:10.284Z,5.85
2019-02-07T03:53:54.013Z,3.08
2019-02-07T03:56:34.372Z,2.62
2019-02-07T03:59:03.059Z,7.20
2019-02-07T04:01:46.490Z,4.70
2019-02-07T04:04:21.019Z,3.85
2019-02-07T04:06:58.303Z,4.35
2019-02-07T04:09:27.604Z,2.65
2019-02-07T04:11:56.290Z,4.60
2019-02-07T04:14:37.266Z,4.42
2019-02-07T04:17:18.240Z,3.95
2019-02-07T04:19:50.316Z,5.33
2019-02-07T04:22:21.700Z,3.77
2019-02-07T04:24:50.443Z,4.00
2019-02-07T04:27:22.216Z,5.95
2019-02-07T04:29:53.652Z,3.55
2019-02-07T04:32:25.411Z,3.67
2019-02-07T04:34:54.098Z,4.67
2019-02-07T04:37:22.784Z,2.42
2019-02-07T04:39:51.473Z,5.97
2019-02-07T04:42:20.157Z,3.80
2019-02-07T04:44:51.652Z,5.50
2019-02-07T04:47:20.602Z,2.45
2019-02-07T04:49:54.823Z,3.27
2019-02-07T04:52:40.401Z,2.80
2019-02-07T04:55:12.468Z,3.75
2019-02-07T04:57:44.226Z,3.95
2019-02-07T05:00:34.417Z,2.60
2019-02-07T05:03:03.102Z,2.10
2019-02-07T05:05:34.553Z,3.77
2019-02-07T05:08:21.979Z,1.80
2019-02-07T05:10:59.887Z,5.83
2019-02-07T05:13:45.464Z,0.90
2019-02-07T05:16:14.458Z,2.83
2019-02-07T05:18:46.525Z,3.27
2019-02-07T05:21:15.519Z,2.52
2019-02-07T05:23:46.969Z,4.03
2019-02-07T05:26:15.966Z,3.77
2019-02-07T05:28:45.264Z,1.32
2019-02-07T05:31:14.258Z,3.30
2019-02-07T05:33:43.251Z,7.62
2019-02-07T05:36:24.264Z,4.05
2019-02-07T05:38:56.292Z,4.67
2019-02-07T05:41:28.054Z,5.55
2019-02-07T05:44:08.720Z,2.85
2019-02-07T05:46:50.446Z,3.35
2019-02-07T05:49:13.464Z,4.30
2019-02-07T05:51:51.682Z,2.52
2019-02-07T05:54:20.369Z,3.80
2019-02-07T05:57:05.680Z,7.20
2019-02-07T05:59:46.305Z,1.42
2019-02-07T06:02:14.991Z,1.82
2019-02-07T06:05:01.541Z,3.60
2019-02-07T06:07:36.324Z,3.75
2019-02-07T06:10:08.697Z,4.45
2019-02-07T06:12:46.605Z,2.22
2019-02-07T06:15:18.059Z,4.33
2019-02-07T06:17:46.738Z,3.17
2019-02-07T06:20:30.480Z,1.55
2019-02-07T06:23:15.752Z,2.20
2019-02-07T06:25:47.512Z,2.75
2019-02-07T06:28:18.861Z,1.20
2019-02-07T06:30:50.724Z,3.00
2019-02-07T06:33:19.419Z,1.82
2019-02-07T06:36:03.147Z,1.25
2019-02-07T06:38:37.677Z,4.10
2019-02-07T06:41:10.044Z,3.80
2019-02-07T06:43:51.018Z,2.40
2019-02-07T06:46:28.614Z,4.53
2019-02-07T06:49:13.934Z,4.53
2019-02-07T06:51:42.887Z,2.40
2019-02-07T06:54:11.877Z,3.55
2019-02-07T06:56:55.923Z,2.22
2019-02-07T06:59:31.373Z,11.70
2019-02-07T07:02:06.204Z,4.30
2019-02-07T07:04:44.100Z,1.20
2019-02-07T07:07:13.095Z,3.95
2019-02-07T07:09:42.703Z,4.10
2019-02-07T07:12:14.200Z,7.12
2019-02-07T07:14:55.131Z,12.47
2019-02-07T07:17:26.924Z,3.90
2019-02-07T07:19:56.171Z,3.02
2019-02-07T07:22:37.138Z,4.60
2019-02-07T07:25:10.766Z,4.25
2019-02-07T07:27:42.216Z,7.15
2019-02-07T07:30:21.654Z,4.15
2019-02-07T07:33:07.545Z,2.67
2019-02-07T07:35:53.126Z,4.92
2019-02-07T07:38:28.266Z,3.12
2019-02-07T07:40:56.953Z,3.17
2019-02-07T07:43:30.419Z,5.33
2019-02-07T07:46:02.006Z,4.22
2019-02-07T07:48:47.587Z,2.77
2019-02-07T07:51:19.353Z,2.77
2019-02-07T07:53:48.339Z,2.87
2019-02-07T07:56:35.151Z,3.20
2019-02-07T07:59:19.204Z,3.05
2019-02-07T08:01:50.955Z,2.05
2019-02-07T08:04:31.931Z,5.47
2019-02-07T08:07:07.375Z,3.22
2019-02-07T08:09:41.900Z,4.50
2019-02-07T08:12:19.803Z,26.50
2019-02-07T08:14:48.489Z,6.40
2019-02-07T08:17:19.942Z,6.37
2019-02-07T08:19:48.627Z,5.12
2019-02-07T08:22:34.209Z,6.62
2019-02-07T08:25:20.098Z,3.95
2019-02-07T08:27:54.929Z,4.08
2019-02-07T08:30:23.617Z,4.42
2019-02-07T08:32:55.075Z,3.95
2019-02-07T08:35:23.753Z,3.33
2019-02-07T08:37:52.453Z,6.45
2019-02-07T08:40:21.440Z,18.05
2019-02-07T08:42:56.264Z,8.15
2019-02-07T08:45:41.846Z,5.87
2019-02-07T08:48:19.442Z,9.25
2019-02-07T08:51:00.110Z,12.43
2019-02-07T08:53:31.868Z,10.08
2019-02-07T08:56:09.773Z,11.60
2019-02-07T08:58:51.125Z,7.20
2019-02-07T09:01:36.022Z,8.00
2019-02-07T09:04:21.648Z,6.37
2019-02-07T09:07:06.768Z,8.68
2019-02-07T09:09:52.769Z,9.85
2019-02-07T09:12:21.457Z,9.15
2019-02-07T09:14:50.449Z,6.92
2019-02-07T09:17:37.267Z,4.87
2019-02-07T09:20:09.144Z,9.18
2019-02-07T09:22:54.295Z,6.67
2019-02-07T09:25:22.982Z,5.03
2019-02-07T09:28:15.938Z,7.87
2019-02-07T09:30:45.238Z,5.97
2019-02-07T09:33:29.286Z,8.88
2019-02-07T09:36:05.646Z,9.88
2019-02-07T09:38:37.148Z,8.20
2019-02-07T09:41:06.407Z,5.65
2019-02-07T09:43:35.136Z,9.93
2019-02-07T09:46:11.763Z,6.55
2019-02-07T09:48:57.039Z,5.42
2019-02-07T09:51:28.798Z,8.15
2019-02-07T09:53:57.488Z,11.30
2019-02-07T09:56:32.621Z,7.65
2019-02-07T09:59:04.688Z,11.78
2019-02-07T10:01:33.681Z,8.58
2019-02-07T10:04:08.512Z,8.38
2019-02-07T10:06:54.096Z,7.47
2019-02-07T10:09:38.141Z,6.92
2019-02-07T10:12:16.047Z,8.40
2019-02-07T10:14:47.495Z,9.28
2019-02-07T10:17:26.325Z,11.10
2019-02-07T10:20:01.154Z,10.65
2019-02-07T10:22:46.425Z,6.35
2019-02-07T10:25:18.185Z,8.70
2019-02-07T10:27:47.177Z,16.10
2019-02-07T10:30:19.892Z,17.35
2019-02-07T10:32:49.158Z,18.92
2019-02-07T10:35:26.754Z,16.27
2019-02-07T10:38:12.388Z,11.50
2019-02-07T10:40:44.097Z,13.62
2019-02-07T10:43:14.319Z,11.95
2019-02-07T10:45:46.078Z,10.63
2019-02-07T10:48:17.776Z,6.12
2019-02-07T10:51:02.848Z,8.65
2019-02-07T10:53:46.544Z,9.93
2019-02-07T10:56:30.587Z,7.60
2019-02-07T10:59:05.726Z,7.75
2019-02-07T11:01:37.800Z,10.40
2019-02-07T11:04:23.682Z,9.35
2019-02-07T11:06:52.676Z,8.95
2019-02-07T11:09:21.770Z,9.98
2019-02-07T11:12:07.252Z,11.65
2019-02-07T11:14:44.847Z,16.20
2019-02-07T11:17:13.840Z,13.50
2019-02-07T11:19:42.835Z,9.15
2019-02-07T11:22:28.724Z,25.90
2019-02-07T11:25:13.080Z,15.68
2019-02-07T11:27:50.985Z,12.35
2019-02-07T11:30:36.873Z,14.47
2019-02-07T11:33:06.171Z,9.10
2019-02-07T11:35:51.447Z,7.95
2019-02-07T11:38:37.337Z,7.95
2019-02-07T11:41:23.227Z,6.33
2019-02-07T11:44:02.050Z,12.37
2019-02-07T11:46:43.025Z,9.85
2019-02-07T11:49:24.309Z,9.38
2019-02-07T11:52:00.472Z,8.65
2019-02-07T11:54:35.180Z,7.65
2019-02-07T11:57:19.551Z,8.50
2019-02-07T12:00:00.527Z,10.53
2019-02-07T12:02:35.666Z,7.75
2019-02-07T12:05:14.180Z,8.00
2019-02-07T12:07:45.940Z,7.83
2019-02-07T12:10:16.471Z,8.83
2019-02-07T12:12:45.463Z,10.55
2019-02-07T12:15:20.580Z,10.08
2019-02-07T12:18:06.184Z,6.72
2019-02-07T12:20:38.863Z,6.70
2019-02-07T12:23:23.217Z,10.05
2019-02-07T12:26:01.165Z,10.72
2019-02-07T12:28:48.545Z,10.58
2019-02-07T12:31:20.304Z,6.67
2019-02-07T12:33:56.253Z,7.95
2019-02-07T12:36:42.560Z,8.40
2019-02-07T12:39:11.863Z,8.03
2019-02-07T12:41:49.456Z,8.75
2019-02-07T12:44:35.040Z,4.85
2019-02-07T12:47:05.570Z,5.12
2019-02-07T12:49:37.329Z,7.92
2019-02-07T12:52:09.085Z,7.40
2019-02-07T12:54:47.107Z,11.48
2019-02-07T12:57:32.927Z,7.20
2019-02-07T13:00:01.873Z,9.75
2019-02-07T13:02:30.866Z,9.58
2019-02-07T13:05:03.239Z,13.03
2019-02-07T13:07:49.129Z,9.95
2019-02-07T13:10:18.119Z,10.45
2019-02-07T13:12:47.116Z,11.28
2019-02-07T13:15:16.377Z,10.28
2019-02-07T13:18:03.853Z,7.90
2019-02-07T13:20:32.836Z,11.15
2019-02-07T13:23:01.833Z,9.85
2019-02-07T13:25:30.836Z,11.78
2019-02-07T13:27:59.818Z,7.92
2019-02-07T13:30:46.063Z,7.85
2019-02-07T13:33:24.260Z,8.85
2019-02-07T13:36:11.076Z,9.20
2019-02-07T13:38:48.945Z,8.20
2019-02-07T13:41:20.698Z,13.00
2019-02-07T13:43:52.475Z,12.20
2019-02-07T13:46:24.521Z,9.40
2019-02-07T13:49:02.732Z,9.63
2019-02-07T13:51:40.819Z,10.32
2019-02-07T13:54:09.678Z,16.48
2019-02-07T13:56:41.082Z,13.55
2019-02-07T13:59:16.524Z,12.55
2019-02-07T14:02:02.993Z,9.20
2019-02-07T14:04:49.225Z,8.25
2019-02-07T14:07:33.887Z,10.00
2019-02-07T14:10:08.717Z,8.20
2019-02-07T14:12:43.854Z,14.90
2019-02-07T14:15:29.745Z,11.12
2019-02-07T14:18:16.865Z,12.78
2019-02-07T14:21:03.062Z,11.18
2019-02-07T14:23:34.820Z,10.82
2019-02-07T14:26:20.402Z,9.98
2019-02-07T14:28:49.396Z,10.68
2019-02-07T14:31:34.364Z,10.70
2019-02-07T14:34:03.357Z,14.60
2019-02-07T14:36:37.891Z,9.50
2019-02-07T14:39:25.000Z,7.28
2019-02-07T14:41:53.995Z,15.55
2019-02-07T14:44:22.988Z,10.20
2019-02-07T14:46:50.798Z,8.05
2019-02-07T14:49:17.904Z,9.85
2019-02-07T14:51:45.052Z,10.53
2019-02-07T14:54:12.511Z,6.10
2019-02-07T14:56:39.668Z,14.90
2019-02-07T14:59:07.426Z,10.38
2019-02-07T15:01:34.577Z,12.95
2019-02-07T15:04:01.727Z,13.03
2019-02-07T15:06:28.879Z,10.88
2019-02-07T15:08:56.029Z,11.53
2019-02-07T15:11:23.178Z,12.98
2019-02-07T15:13:50.330Z,8.65
2019-02-07T15:16:17.481Z,12.75
2019-02-07T15:18:46.239Z,11.38
2019-02-07T15:21:14.545Z,7.20
2019-02-07T15:23:41.696Z,11.97
2019-02-07T15:26:08.847Z,8.43
2019-02-07T15:28:35.998Z,9.63
2019-02-07T15:31:03.769Z,11.75
2019-02-07T15:33:30.914Z,11.33
2019-02-07T15:35:58.063Z,11.30
2019-02-07T15:38:25.213Z,11.80
2019-02-07T15:40:52.379Z,11.08
2019-02-07T15:43:19.516Z,14.03
2019-02-07T15:45:46.670Z,10.93
2019-02-07T15:48:14.123Z,12.63
2019-02-07T15:50:41.273Z,9.45
2019-02-07T15:53:08.424Z,7.80
2019-02-07T15:55:35.574Z,10.82
2019-02-07T15:58:02.577Z,15.08
2019-02-07T16:00:43.436Z,9.43
2019-02-07T16:03:15.766Z,9.38
2019-02-07T16:05:42.916Z,13.53
2019-02-07T16:08:10.066Z,8.63
2019-02-07T16:10:37.217Z,11.43
2019-02-07T16:13:04.367Z,13.30
2019-02-07T16:15:31.518Z,10.68
2019-02-07T16:17:58.668Z,8.35
2019-02-07T16:20:26.433Z,11.83
2019-02-07T16:22:53.584Z,9.00
2019-02-07T16:25:20.737Z,12.93
2019-02-07T16:27:47.887Z,11.78
2019-02-07T16:30:16.879Z,11.12
2019-02-07T16:32:44.379Z,13.83
2019-02-07T16:35:13.330Z,16.12
2019-02-07T16:37:40.788Z,15.78
2019-02-07T16:40:09.784Z,14.10
2019-02-07T16:42:36.932Z,13.55
2019-02-07T16:45:05.925Z,13.55
2019-02-07T16:47:33.383Z,12.07
2019-02-07T16:50:00.534Z,11.55
2019-02-07T16:52:27.993Z,14.07
2019-02-07T16:54:55.187Z,11.70
2019-02-07T16:57:22.305Z,13.53
2019-02-07T16:59:49.444Z,12.75
2019-02-07T17:02:16.594Z,11.45
2019-02-07T17:04:43.743Z,17.17
2019-02-07T17:07:10.897Z,11.83
2019-02-07T17:09:39.012Z,12.20
2019-02-07T17:12:06.731Z,12.93
2019-02-07T17:14:34.496Z,13.32
2019-02-07T17:17:01.971Z,10.10
2019-02-07T17:19:29.104Z,10.23
2019-02-07T17:21:56.256Z,9.58
2019-02-07T17:24:23.405Z,6.25
2019-02-07T17:26:50.563Z,8.93
2019-02-07T17:29:18.324Z,10.30
2019-02-07T17:31:45.471Z,13.05
2019-02-07T17:34:12.622Z,10.68
2019-02-07T17:36:39.774Z,13.28
2019-02-07T17:39:06.968Z,11.53
2019-02-07T17:41:34.074Z,15.93
2019-02-07T17:44:01.224Z,11.80
2019-02-07T17:46:28.318Z,11.48
2019-02-07T17:48:56.139Z,13.38
2019-02-07T17:51:23.593Z,14.85
2019-02-07T17:53:51.055Z,13.62
2019-02-07T17:56:20.049Z,10.78
2019-02-07T17:58:47.201Z,13.38
2019-02-07T18:01:14.350Z,15.28
2019-02-07T18:03:41.194Z,12.70
2019-02-07T18:06:09.308Z,14.15
2019-02-07T18:08:36.419Z,10.08
2019-02-07T18:11:04.183Z,14.03
2019-02-07T18:13:31.333Z,10.53
2019-02-07T18:15:58.482Z,13.75
2019-02-07T18:18:25.699Z,13.95
2019-02-07T18:20:52.782Z,12.65
2019-02-07T18:23:19.776Z,9.80
2019-02-07T18:25:47.392Z,9.63
2019-02-07T18:28:14.644Z,41.63
2019-02-07T18:30:41.692Z,19.35
2019-02-07T18:33:08.535Z,21.80
2019-02-07T18:35:35.424Z,19.40
2019-02-07T18:38:02.222Z,18.90
2019-02-07T18:40:32.444Z,20.52
2019-02-07T18:42:59.903Z,20.45
2019-02-07T18:45:27.051Z,21.00
2019-02-07T18:47:54.202Z,18.57
2019-02-07T18:50:27.803Z,17.30
2019-02-07T18:52:54.648Z,23.57
2019-02-07T18:55:21.491Z,18.25
2019-02-07T18:57:48.384Z,19.90
2019-02-07T19:00:19.221Z,21.62
2019-02-07T19:02:46.017Z,19.37
2019-02-07T19:05:15.924Z,21.85
2019-02-07T19:07:42.772Z,17.67
2019-02-07T19:10:12.256Z,20.17
2019-02-07T19:12:39.233Z,20.35
2019-02-07T19:15:09.753Z,21.00
2019-02-07T19:17:37.256Z,20.25
2019-02-07T19:20:07.792Z,22.73
2019-02-07T19:22:34.583Z,17.40
2019-02-07T19:25:02.561Z,20.80
2019-02-07T19:27:29.499Z,18.87
2019-02-07T19:29:56.342Z,18.52
2019-02-07T19:32:23.187Z,19.77
2019-02-07T19:34:50.643Z,19.15
2019-02-07T19:37:17.486Z,16.70
2019-02-07T19:39:44.312Z,17.10
2019-02-07T19:42:11.173Z,16.32
2019-02-07T19:44:38.324Z,13.20
2019-02-07T19:47:05.798Z,14.80
2019-02-07T19:49:33.025Z,13.93
2019-02-07T19:52:07.884Z,15.65
2019-02-07T19:54:28.462Z,17.62
2019-02-07T19:56:55.614Z,19.10
2019-02-07T19:59:24.305Z,16.17
2019-02-07T20:01:51.451Z,16.42
2019-02-07T20:04:18.601Z,16.20
2019-02-07T20:06:45.442Z,16.25
2019-02-07T20:09:12.593Z,19.50
2019-02-07T20:11:40.051Z,18.82
2019-02-07T20:14:06.894Z,18.65
2019-02-07T20:16:33.738Z,18.53
2019-02-07T20:19:00.888Z,20.77
2019-02-07T20:21:27.733Z,19.98
2019-02-07T20:23:54.574Z,17.10
2019-02-07T20:26:21.650Z,14.70
2019-02-07T20:28:51.499Z,17.32
2019-02-07T20:31:16.952Z,17.67
2019-02-07T20:33:44.406Z,12.00
2019-02-07T20:36:11.248Z,10.95
2019-02-07T20:38:38.093Z,9.68
2019-02-07T20:41:05.242Z,9.88
2019-02-07T20:43:32.086Z,6.30
2019-02-07T20:45:58.929Z,8.80
2019-02-07T20:48:26.079Z,6.17
2019-02-07T20:50:52.985Z,7.45
2019-02-07T20:53:19.766Z,7.70
2019-02-07T20:55:47.225Z,10.88
2019-02-07T20:58:14.067Z,11.90
2019-02-07T21:00:42.754Z,12.78
2019-02-07T21:03:10.213Z,12.25
2019-02-07T21:05:37.366Z,12.50
2019-02-07T21:08:04.740Z,14.35
2019-02-07T21:10:33.816Z,12.10
2019-02-07T21:13:01.136Z,13.93
2019-02-07T21:15:28.652Z,13.00
2019-02-07T21:17:55.571Z,14.95
2019-02-07T21:20:24.461Z,12.73
2019-02-07T21:22:52.944Z,12.35
2019-02-07T21:25:23.168Z,10.50
2019-02-07T21:27:50.317Z,10.15
2019-02-07T21:30:23.307Z,10.53
2019-02-07T21:32:51.012Z,9.35
2019-02-07T21:35:19.636Z,7.95
2019-02-07T21:37:46.600Z,8.55
2019-02-07T21:40:16.821Z,5.33
2019-02-07T21:42:43.974Z,5.30
2019-02-07T21:45:13.532Z,5.75
2019-02-07T21:47:41.038Z,3.77
2019-02-07T21:50:11.875Z,2.65
2019-02-07T21:52:41.892Z,1.95
2019-02-07T21:55:10.828Z,1.32
2019-02-07T21:57:37.627Z,3.90
2019-02-07T22:00:17.398Z,1.90
2019-02-07T22:02:44.837Z,1.40
2019-02-07T22:05:11.682Z,1.30
2019-02-07T22:07:38.829Z,1.05
2019-02-07T22:10:07.456Z,1.30
2019-02-07T22:12:34.355Z,1.10
2019-02-07T22:15:01.505Z,0.90
2019-02-07T22:17:28.373Z,1.45
2019-02-07T22:19:55.194Z,1.20
2019-02-07T22:22:22.649Z,1.20
2019-02-07T22:24:49.495Z,1.05
2019-02-07T22:27:16.336Z,1.02
2019-02-07T22:29:43.488Z,1.50
2019-02-07T22:32:10.330Z,1.77
2019-02-07T22:34:37.173Z,1.20
2019-02-07T22:37:04.020Z,1.40
2019-02-07T22:39:30.860Z,1.10
2019-02-07T22:41:58.319Z,1.45
2019-02-07T22:44:25.482Z,1.32
2019-02-07T22:46:52.356Z,0.90
2019-02-07T22:49:19.406Z,1.17
2019-02-07T22:51:46.305Z,1.20
2019-02-07T22:54:13.149Z,0.95
2019-02-07T22:56:45.268Z,1.10
2019-02-07T22:59:08.678Z,1.60
2019-02-07T23:01:39.212Z,1.32
2019-02-07T23:04:06.358Z,1.20
2019-02-07T23:06:33.248Z,1.10
2019-02-07T23:09:00.396Z,1.10
2019-02-07T23:11:27.504Z,1.17
2019-02-07T23:13:54.392Z,1.12
2019-02-07T23:16:21.499Z,1.30
2019-02-07T23:18:48.340Z,1.00
2019-02-07T23:21:15.228Z,1.10
2019-02-07T23:23:42.334Z,1.30
2019-02-07T23:26:09.484Z,1.10
2019-02-07T23:28:37.254Z,1.50
2019-02-07T23:31:04.400Z,1.45
2019-02-07T23:33:31.246Z,1.20
2019-02-07T23:35:58.702Z,1.30
2019-02-07T23:38:25.544Z,1.00
2019-02-07T23:40:52.696Z,1.50
2019-02-07T23:43:20.158Z,1.00
2019-02-07T23:45:46.915Z,1.00
2019-02-07T23:48:13.841Z,1.20
2019-02-07T23:50:40.990Z,1.00
2019-02-07T23:53:14.282Z,1.60
2019-02-07T23:55:37.136Z,1.40
2019-02-07T23:58:04.604Z,1.15
